Kezdőlap
METAR-TAF:

METAR-TAF

Repülőterek :

Clinton Municipal Airport

Clinton, Iowa, Amerikai Egyesült Államok

földrajzi szélesség: 41-50N, földrajzi hosszúság: 090-20W, magasság: 216 m

Jelenlegi meteorológiai megfigyelések

A jelentés 1 órával és 4 perccel ezelõtt készült, 14:56 UTC
Keleti szél 4 kt
Hőmérséklet -1°C
Páratartalom 100%
Légköri nyomás 1024 hPa
Látótávolság: 16.1 km
Derült ég

METAR: KCWI 081456Z AUTO 09004KT 10SM CLR M01/M01 A3025 RMK AO2 SLP257 T10111011 50001 FZRANO

Idő: 10:00 (16:00 UTC)


TAF: hiányzik

Meteorológiai megfigyelések és előrejelzések több, mint 4000 repülőtéren (METAR és TAF jelentéseket).

A térképen piros és sárga pontok jelzik az elérhető meteorológiai állomásokat.

Mozgassa az egeret a pont fölött, hogy megjelenjen az állomás neve.

Azután kattintson az időjárási megfigyelések és előrejelzések megtekintéséhez.

A térkép megváltoztatása: kattintson a fekete keresztel jelölt zöld gombra ráközelítéshez, a vonallal jelölt zöld gombra távolításhoz, vagy a zöld nyilakra a szomszédos térképek eléréséhez.


METAR-TAF: